createdAt,value
2018-07-26T00:00:21.635Z,18.20
2018-07-26T00:02:49.691Z,18.20
2018-07-26T00:05:17.755Z,18.10
2018-07-26T00:07:52.452Z,18.10
2018-07-26T00:10:20.528Z,18.00
2018-07-26T00:12:48.612Z,18.00
2018-07-26T00:15:16.728Z,18.00
2018-07-26T00:17:44.788Z,18.00
2018-07-26T00:20:12.868Z,17.90
2018-07-26T00:22:40.964Z,17.90
2018-07-26T00:25:09.009Z,17.90
2018-07-26T00:28:40.347Z,17.90
2018-07-26T00:31:08.442Z,17.80
2018-07-26T00:33:36.524Z,17.90
2018-07-26T00:36:04.599Z,17.80
2018-07-26T00:38:32.683Z,17.80
2018-07-26T00:41:00.844Z,17.70
2018-07-26T00:43:28.911Z,17.70
2018-07-26T00:45:57.043Z,17.80
2018-07-26T00:48:25.203Z,17.70
2018-07-26T00:50:53.272Z,17.70
2018-07-26T00:53:21.376Z,17.70
2018-07-26T00:55:49.465Z,17.60
2018-07-26T00:58:17.589Z,17.60
2018-07-26T01:00:46.623Z,17.60
2018-07-26T01:03:14.683Z,17.60
2018-07-26T01:05:42.755Z,17.60
2018-07-26T01:08:10.835Z,17.50
2018-07-26T01:10:38.898Z,17.40
2018-07-26T01:13:06.979Z,17.50
2018-07-26T01:15:35.058Z,17.40
2018-07-26T01:18:03.104Z,17.40
2018-07-26T01:20:31.155Z,17.30
2018-07-26T01:22:59.236Z,17.30
2018-07-26T01:25:27.291Z,17.30
2018-07-26T01:27:55.387Z,17.30
2018-07-26T01:30:23.435Z,17.30
2018-07-26T01:32:51.505Z,17.30
2018-07-26T01:35:19.609Z,17.20
2018-07-26T01:37:47.687Z,17.20
2018-07-26T01:40:15.759Z,17.20
2018-07-26T01:43:58.974Z,17.20
2018-07-26T01:46:27.516Z,17.20
2018-07-26T01:48:55.607Z,17.20
2018-07-26T01:51:23.693Z,17.10
2018-07-26T01:53:51.751Z,17.10
2018-07-26T01:56:19.835Z,17.00
2018-07-26T01:58:47.910Z,17.00
2018-07-26T02:01:15.988Z,17.00
2018-07-26T02:03:44.074Z,17.00
2018-07-26T02:06:12.139Z,17.00
2018-07-26T02:08:40.208Z,17.00
2018-07-26T02:11:08.300Z,17.00
2018-07-26T02:13:36.420Z,17.00
2018-07-26T02:16:04.495Z,17.00
2018-07-26T02:18:32.593Z,16.90
2018-07-26T02:21:00.663Z,16.90
2018-07-26T02:23:28.751Z,16.80
2018-07-26T02:25:56.845Z,16.80
2018-07-26T02:28:24.933Z,16.80
2018-07-26T02:30:53.086Z,16.80
2018-07-26T02:33:21.142Z,16.80
2018-07-26T02:35:49.223Z,16.70
2018-07-26T02:38:17.294Z,16.70
2018-07-26T02:40:45.399Z,16.70
2018-07-26T02:43:13.454Z,16.70
2018-07-26T02:45:41.571Z,16.70
2018-07-26T02:48:09.786Z,16.60
2018-07-26T02:50:37.872Z,16.60
2018-07-26T02:53:06.199Z,16.60
2018-07-26T02:55:34.327Z,16.60
2018-07-26T02:58:02.386Z,16.60
2018-07-26T03:00:30.461Z,16.50
2018-07-26T03:02:58.527Z,16.50
2018-07-26T03:05:26.639Z,16.50
2018-07-26T03:07:54.720Z,16.50
2018-07-26T03:10:22.819Z,16.50
2018-07-26T03:12:50.919Z,16.40
2018-07-26T03:15:18.994Z,16.40
2018-07-26T03:17:47.052Z,16.40
2018-07-26T03:20:15.150Z,16.40
2018-07-26T03:22:43.251Z,16.40
2018-07-26T03:25:11.355Z,16.40
2018-07-26T03:27:39.436Z,16.30
2018-07-26T03:30:07.959Z,16.30
2018-07-26T03:32:36.008Z,16.30
2018-07-26T03:35:04.123Z,16.30
2018-07-26T03:37:32.227Z,16.40
2018-07-26T03:40:03.255Z,16.40
2018-07-26T03:42:31.332Z,16.40
2018-07-26T03:44:59.424Z,16.40
2018-07-26T03:47:27.516Z,16.30
2018-07-26T03:49:55.631Z,16.40
2018-07-26T03:52:23.731Z,16.40
2018-07-26T03:54:51.812Z,16.30
2018-07-26T03:57:19.928Z,16.40
2018-07-26T04:01:12.533Z,16.40
2018-07-26T04:03:40.616Z,16.40
2018-07-26T04:06:08.731Z,16.40
2018-07-26T04:08:36.816Z,16.50
2018-07-26T04:11:04.884Z,16.50
2018-07-26T04:13:32.979Z,16.60
2018-07-26T04:16:01.102Z,16.60
2018-07-26T04:18:29.182Z,16.70
2018-07-26T04:20:57.343Z,16.70
2018-07-26T04:23:25.459Z,16.80
2018-07-26T04:25:53.519Z,16.80
2018-07-26T04:28:21.606Z,16.90
2018-07-26T04:30:49.676Z,16.90
2018-07-26T04:33:17.780Z,17.00
2018-07-26T04:35:45.851Z,17.10
2018-07-26T04:38:13.967Z,17.10
2018-07-26T04:40:42.067Z,17.20
2018-07-26T04:43:10.131Z,17.30
2018-07-26T04:45:38.200Z,17.40
2018-07-26T04:48:06.271Z,17.50
2018-07-26T04:50:34.351Z,17.70
2018-07-26T04:53:02.417Z,17.80
2018-07-26T04:55:30.507Z,18.00
2018-07-26T04:57:58.584Z,18.20
2018-07-26T05:00:27.703Z,18.40
2018-07-26T05:02:55.815Z,18.60
2018-07-26T05:05:24.107Z,18.90
2018-07-26T05:07:52.288Z,19.00
2018-07-26T05:10:20.713Z,19.10
2018-07-26T05:12:48.779Z,19.20
2018-07-26T05:15:16.880Z,19.40
2018-07-26T05:17:44.965Z,19.50
2018-07-26T05:20:13.028Z,19.70
2018-07-26T05:22:41.107Z,19.90
2018-07-26T05:25:09.202Z,20.10
2018-07-26T05:27:37.446Z,20.20
2018-07-26T05:30:05.562Z,20.30
2018-07-26T05:32:33.678Z,20.50
2018-07-26T05:35:01.750Z,20.60
2018-07-26T05:37:29.871Z,20.70
2018-07-26T05:39:58.014Z,20.80
2018-07-26T05:42:26.076Z,21.00
2018-07-26T05:44:54.128Z,21.30
2018-07-26T05:47:22.275Z,21.50
2018-07-26T05:49:50.369Z,21.50
2018-07-26T05:54:48.700Z,21.70
2018-07-26T05:57:16.779Z,21.80
2018-07-26T05:59:45.008Z,21.90
2018-07-26T06:02:13.279Z,22.00
2018-07-26T06:04:41.341Z,22.20
2018-07-26T06:07:09.452Z,22.30
2018-07-26T06:09:37.580Z,22.30
2018-07-26T06:12:05.706Z,22.50
2018-07-26T06:14:33.768Z,22.80
2018-07-26T06:17:01.837Z,22.80
2018-07-26T06:19:29.934Z,22.90
2018-07-26T06:21:58.028Z,22.40
2018-07-26T06:24:26.116Z,22.70
2018-07-26T06:26:54.270Z,23.10
2018-07-26T06:29:22.479Z,23.30
2018-07-26T06:31:50.552Z,23.40
2018-07-26T06:34:18.635Z,23.20
2018-07-26T06:36:46.723Z,23.40
2018-07-26T06:39:14.820Z,23.70
2018-07-26T06:41:43.761Z,23.90
2018-07-26T06:44:12.948Z,24.30
2018-07-26T06:46:41.024Z,24.90
2018-07-26T06:49:09.427Z,25.30
2018-07-26T06:51:37.995Z,25.90
2018-07-26T06:54:06.120Z,26.50
2018-07-26T06:56:34.217Z,27.20
2018-07-26T06:59:02.300Z,27.90
2018-07-26T07:01:30.363Z,28.20
2018-07-26T07:03:58.476Z,28.50
2018-07-26T07:06:26.607Z,29.60
2018-07-26T07:08:54.675Z,30.30
2018-07-26T07:11:22.742Z,30.80
2018-07-26T07:13:50.815Z,31.00
2018-07-26T07:16:18.899Z,31.20
2018-07-26T07:18:46.968Z,31.30
2018-07-26T07:21:15.251Z,31.50
2018-07-26T07:23:43.359Z,31.40
2018-07-26T07:26:11.448Z,31.90
2018-07-26T07:28:39.552Z,31.90
2018-07-26T07:31:07.625Z,32.30
2018-07-26T07:33:35.680Z,32.30
2018-07-26T07:36:03.742Z,32.40
2018-07-26T07:38:31.828Z,32.70
2018-07-26T07:40:59.911Z,33.20
2018-07-26T07:43:27.979Z,33.50
2018-07-26T07:45:56.027Z,33.70
2018-07-26T07:48:24.130Z,33.40
2018-07-26T07:50:54.203Z,33.80
2018-07-26T07:53:22.295Z,34.20
2018-07-26T07:55:50.363Z,34.00
2018-07-26T07:58:19.405Z,33.70
2018-07-26T08:00:47.565Z,33.70
2018-07-26T08:03:15.611Z,33.70
2018-07-26T08:05:43.748Z,34.40
2018-07-26T08:08:11.819Z,34.70
2018-07-26T08:10:39.885Z,35.30
2018-07-26T08:13:08.178Z,35.00
2018-07-26T08:15:36.251Z,35.10
2018-07-26T08:18:04.340Z,34.90
2018-07-26T08:20:32.407Z,34.90
2018-07-26T08:23:00.514Z,34.70
2018-07-26T08:25:28.563Z,34.80
2018-07-26T08:27:56.624Z,35.40
2018-07-26T08:30:24.723Z,35.80
2018-07-26T08:32:52.786Z,36.80
2018-07-26T08:35:20.848Z,37.10
2018-07-26T08:37:48.898Z,36.50
2018-07-26T08:40:16.996Z,35.50
2018-07-26T08:42:45.067Z,35.20
2018-07-26T08:45:13.165Z,35.40
2018-07-26T08:47:41.254Z,36.30
2018-07-26T08:50:09.723Z,36.60
2018-07-26T08:52:37.783Z,37.30
2018-07-26T08:55:05.969Z,37.70
2018-07-26T08:57:34.095Z,37.90
2018-07-26T09:00:02.176Z,37.50
2018-07-26T09:02:30.418Z,37.50
2018-07-26T09:04:58.540Z,37.70
2018-07-26T09:07:26.615Z,37.90
2018-07-26T09:09:54.712Z,37.70
2018-07-26T09:12:22.838Z,38.30
2018-07-26T09:14:50.887Z,38.30
2018-07-26T09:17:19.015Z,37.90
2018-07-26T09:19:47.101Z,37.00
2018-07-26T09:22:15.138Z,36.70
2018-07-26T09:24:43.711Z,35.90
2018-07-26T09:27:13.088Z,35.60
2018-07-26T09:29:41.316Z,35.40
2018-07-26T09:32:09.386Z,35.70
2018-07-26T09:34:37.443Z,36.00
2018-07-26T09:37:05.544Z,36.90
2018-07-26T09:39:33.620Z,36.50
2018-07-26T09:42:01.733Z,35.30
2018-07-26T09:44:29.814Z,35.10
2018-07-26T09:46:57.896Z,34.00
2018-07-26T09:51:53.879Z,33.20
2018-07-26T09:54:21.948Z,33.80
2018-07-26T09:56:50.075Z,34.10
2018-07-26T09:59:18.223Z,34.30
2018-07-26T10:01:46.280Z,35.10
2018-07-26T10:04:14.334Z,34.60
2018-07-26T10:06:42.406Z,34.60
2018-07-26T10:09:11.770Z,34.60
2018-07-26T10:11:40.547Z,35.10
2018-07-26T10:14:08.673Z,35.90
2018-07-26T10:16:36.707Z,35.40
2018-07-26T10:19:04.815Z,35.90
2018-07-26T10:21:32.942Z,35.70
2018-07-26T10:24:01.015Z,36.50
2018-07-26T10:26:29.076Z,37.30
2018-07-26T10:28:57.151Z,37.90
2018-07-26T11:53:22.989Z,36.10
2018-07-26T11:58:18.970Z,32.50
2018-07-26T12:00:47.083Z,32.50
2018-07-26T12:03:15.187Z,32.50
2018-07-26T12:05:43.271Z,32.40
2018-07-26T12:08:11.390Z,32.40
2018-07-26T12:10:39.527Z,32.60
2018-07-26T12:13:07.700Z,32.70
2018-07-26T12:15:35.823Z,32.80
2018-07-26T12:18:03.904Z,32.90
2018-07-26T12:20:32.863Z,32.90
2018-07-26T12:23:00.994Z,32.80
2018-07-26T12:25:29.051Z,32.70
2018-07-26T12:27:57.148Z,32.60
2018-07-26T12:30:25.270Z,32.50
2018-07-26T12:32:53.384Z,32.40
2018-07-26T12:35:21.453Z,32.50
2018-07-26T12:37:49.512Z,32.50
2018-07-26T12:40:17.797Z,32.40
2018-07-26T12:42:45.879Z,32.20
2018-07-26T12:45:13.927Z,31.90
2018-07-26T12:47:42.223Z,31.70
2018-07-26T12:50:10.316Z,31.50
2018-07-26T12:52:38.999Z,31.30
2018-07-26T12:55:07.081Z,31.20
2018-07-26T12:57:35.167Z,31.30
2018-07-26T13:00:03.272Z,31.50
2018-07-26T13:02:31.364Z,31.40
2018-07-26T13:04:59.589Z,31.60
2018-07-26T13:07:27.663Z,31.80
2018-07-26T13:09:55.719Z,31.80
2018-07-26T13:12:23.873Z,31.80
2018-07-26T13:14:51.984Z,31.90
2018-07-26T13:17:20.016Z,31.90
2018-07-26T13:19:48.386Z,31.90
2018-07-26T13:22:16.463Z,31.60
2018-07-26T13:24:44.508Z,31.50
2018-07-26T13:27:12.620Z,31.40
2018-07-26T13:29:40.653Z,31.40
2018-07-26T13:32:09.253Z,31.50
2018-07-26T13:34:37.324Z,31.40
2018-07-26T13:37:05.415Z,31.60
2018-07-26T13:39:33.499Z,31.70
2018-07-26T13:42:01.582Z,31.80
2018-07-26T13:44:29.672Z,31.70
2018-07-26T13:46:57.734Z,31.70
2018-07-26T13:49:26.096Z,31.50
2018-07-26T13:51:54.178Z,31.80
2018-07-26T13:54:22.251Z,31.80
2018-07-26T13:56:50.319Z,31.90
2018-07-26T13:59:18.392Z,31.60
2018-07-26T14:01:46.465Z,31.40
2018-07-26T14:04:14.736Z,31.60
2018-07-26T14:06:42.912Z,31.80
2018-07-26T14:09:12.111Z,31.70
2018-07-26T14:11:40.699Z,31.40
2018-07-26T14:14:08.866Z,31.30
2018-07-26T14:16:37.046Z,31.20
2018-07-26T14:19:05.671Z,31.00
2018-07-26T14:21:33.727Z,30.90
2018-07-26T14:24:02.575Z,31.00
2018-07-26T14:26:31.372Z,31.00
2018-07-26T14:28:59.441Z,31.10
2018-07-26T14:31:27.583Z,31.00
2018-07-26T14:33:55.691Z,31.00
2018-07-26T14:36:23.758Z,31.00
2018-07-26T14:38:51.827Z,31.10
2018-07-26T14:41:19.899Z,31.20
2018-07-26T14:43:47.969Z,31.40
2018-07-26T14:46:16.041Z,31.30
2018-07-26T14:48:44.124Z,31.20
2018-07-26T14:51:12.184Z,31.20
2018-07-26T14:53:40.359Z,31.30
2018-07-26T14:56:08.500Z,31.20
2018-07-26T14:58:36.655Z,31.10
2018-07-26T15:01:04.674Z,31.00
2018-07-26T15:03:32.747Z,31.00
2018-07-26T15:06:00.811Z,31.00
2018-07-26T15:08:28.879Z,31.10
2018-07-26T15:10:56.959Z,31.10
2018-07-26T15:13:25.056Z,31.10
2018-07-26T15:15:53.135Z,31.00
2018-07-26T15:18:21.203Z,31.00
2018-07-26T15:20:49.289Z,31.00
2018-07-26T15:23:17.318Z,31.10
2018-07-26T15:25:45.427Z,31.10
2018-07-26T15:28:13.536Z,31.10
2018-07-26T15:30:41.618Z,31.10
2018-07-26T15:33:09.725Z,31.10
2018-07-26T15:35:37.818Z,31.20
2018-07-26T15:38:05.899Z,31.30
2018-07-26T15:40:33.971Z,31.10
2018-07-26T15:43:02.044Z,31.00
2018-07-26T15:45:30.136Z,31.00
2018-07-26T15:47:58.210Z,30.90
2018-07-26T15:50:26.286Z,30.70
2018-07-26T15:52:54.426Z,30.60
2018-07-26T15:55:22.538Z,30.60
2018-07-26T15:57:50.600Z,30.60
2018-07-26T16:00:18.798Z,30.60
2018-07-26T16:02:46.850Z,30.70
2018-07-26T16:05:14.959Z,30.70
2018-07-26T16:07:43.030Z,30.70
2018-07-26T16:10:11.135Z,30.70
2018-07-26T16:12:39.208Z,30.70
2018-07-26T16:15:09.174Z,30.60
2018-07-26T16:17:37.347Z,30.60
2018-07-26T16:20:06.871Z,30.50
2018-07-26T16:22:35.022Z,30.50
2018-07-26T16:25:03.131Z,30.50
2018-07-26T16:27:31.220Z,30.60
2018-07-26T16:29:59.303Z,30.60
2018-07-26T16:32:27.386Z,30.70
2018-07-26T16:34:55.451Z,30.70
2018-07-26T16:37:23.507Z,30.80
2018-07-26T16:39:51.663Z,30.70
2018-07-26T16:42:19.899Z,30.70
2018-07-26T16:44:47.976Z,30.70
2018-07-26T16:47:16.071Z,30.60
2018-07-26T16:49:44.145Z,30.60
2018-07-26T16:52:12.216Z,30.60
2018-07-26T16:54:40.352Z,30.50
2018-07-26T16:57:08.454Z,30.50
2018-07-26T16:59:36.592Z,30.50
2018-07-26T17:02:04.686Z,30.50
2018-07-26T17:04:32.757Z,30.50
2018-07-26T17:07:00.862Z,30.40
2018-07-26T17:09:28.936Z,30.30
2018-07-26T17:11:57.016Z,30.20
2018-07-26T17:14:25.095Z,30.10
2018-07-26T17:16:53.151Z,30.00
2018-07-26T17:19:21.219Z,29.90
2018-07-26T17:21:49.323Z,29.90
2018-07-26T17:24:17.374Z,29.90
2018-07-26T17:26:45.468Z,29.80
2018-07-26T17:29:13.679Z,29.80
2018-07-26T17:31:41.578Z,29.80
2018-07-26T17:34:09.721Z,29.80
2018-07-26T17:36:37.783Z,29.70
2018-07-26T17:39:07.444Z,29.70
2018-07-26T17:41:35.500Z,29.60
2018-07-26T17:44:03.555Z,29.50
2018-07-26T17:46:31.654Z,29.50
2018-07-26T17:48:59.797Z,29.50
2018-07-26T17:51:27.883Z,29.40
2018-07-26T17:53:55.983Z,29.40
2018-07-26T17:56:24.019Z,29.30
2018-07-26T17:58:52.374Z,29.30
2018-07-26T18:01:20.455Z,29.20
2018-07-26T18:03:48.695Z,29.20
2018-07-26T18:06:16.768Z,29.10
2018-07-26T18:08:44.841Z,29.10
2018-07-26T18:11:12.947Z,29.00
2018-07-26T18:13:41.039Z,28.90
2018-07-26T18:16:09.143Z,28.80
2018-07-26T18:18:37.230Z,28.80
2018-07-26T18:21:05.308Z,28.80
2018-07-26T18:23:33.396Z,28.70
2018-07-26T18:26:01.517Z,28.70
2018-07-26T18:28:29.618Z,28.70
2018-07-26T18:30:57.700Z,28.60
2018-07-26T18:33:25.791Z,28.50
2018-07-26T18:35:53.884Z,28.50
2018-07-26T18:38:22.007Z,28.40
2018-07-26T18:40:50.009Z,28.30
2018-07-26T18:43:18.460Z,28.30
2018-07-26T18:45:46.574Z,28.30
2018-07-26T18:48:14.663Z,28.20
2018-07-26T18:50:42.757Z,28.10
2018-07-26T18:53:10.824Z,28.10
2018-07-26T18:55:38.934Z,28.00
2018-07-26T18:58:06.995Z,28.00
2018-07-26T19:00:35.052Z,28.00
2018-07-26T19:03:03.159Z,28.00
2018-07-26T19:05:31.278Z,28.00
2018-07-26T19:07:59.359Z,27.90
2018-07-26T19:10:27.474Z,27.90
2018-07-26T19:12:55.565Z,27.80
2018-07-26T19:15:23.661Z,27.70
2018-07-26T19:17:51.719Z,27.70
2018-07-26T19:20:19.810Z,27.60
2018-07-26T19:22:47.907Z,27.50
2018-07-26T19:25:15.978Z,27.40
2018-07-26T19:27:44.029Z,27.30
2018-07-26T19:30:13.677Z,27.10
2018-07-26T19:32:41.793Z,26.90
2018-07-26T19:35:10.277Z,26.70
2018-07-26T19:37:38.343Z,26.60
2018-07-26T19:40:07.546Z,26.50
2018-07-26T19:42:35.721Z,26.30
2018-07-26T19:45:04.500Z,26.10
2018-07-26T19:47:32.587Z,26.10
2018-07-26T19:50:00.683Z,25.90
2018-07-26T19:52:28.811Z,25.80
2018-07-26T19:54:56.935Z,25.80
2018-07-26T19:57:25.039Z,25.70
2018-07-26T19:59:53.127Z,25.60
2018-07-26T20:02:21.200Z,25.50
2018-07-26T20:04:49.272Z,25.40
2018-07-26T20:07:17.350Z,25.30
2018-07-26T20:09:45.424Z,25.20
2018-07-26T20:12:13.531Z,25.10
2018-07-26T20:14:41.584Z,25.00
2018-07-26T20:17:09.698Z,24.90
2018-07-26T20:19:37.771Z,24.80
2018-07-26T20:22:05.876Z,24.70
2018-07-26T20:24:33.968Z,24.60
2018-07-26T20:27:02.095Z,24.50
2018-07-26T20:29:30.151Z,24.50
2018-07-26T20:31:58.266Z,24.40
2018-07-26T20:34:28.066Z,24.30
2018-07-26T20:36:56.141Z,24.20
2018-07-26T20:39:24.203Z,24.10
2018-07-26T20:41:52.270Z,24.00
2018-07-26T20:44:20.390Z,23.90
2018-07-26T20:46:48.462Z,23.90
2018-07-26T20:49:16.572Z,23.80
2018-07-26T20:51:44.643Z,23.70
2018-07-26T20:54:12.682Z,23.60
2018-07-26T20:56:40.785Z,23.60
2018-07-26T20:59:08.888Z,23.50
2018-07-26T21:01:36.951Z,23.40
2018-07-26T21:04:05.217Z,23.40
2018-07-26T21:06:33.303Z,23.20
2018-07-26T21:09:01.371Z,23.20
2018-07-26T21:11:29.492Z,23.20
2018-07-26T21:13:57.536Z,23.20
2018-07-26T21:16:25.624Z,23.20
2018-07-26T21:18:53.687Z,23.10
2018-07-26T21:21:21.765Z,23.00
2018-07-26T21:23:49.855Z,22.90
2018-07-26T21:26:17.935Z,22.80
2018-07-26T21:28:46.007Z,22.80
2018-07-26T21:31:14.123Z,22.70
2018-07-26T21:33:42.194Z,22.60
2018-07-26T21:36:10.279Z,22.60
2018-07-26T21:38:38.363Z,22.50
2018-07-26T21:42:09.415Z,22.50
2018-07-26T21:44:37.566Z,22.40
2018-07-26T21:47:05.593Z,22.30
2018-07-26T21:49:33.696Z,22.30
2018-07-26T21:52:01.779Z,22.20
2018-07-26T21:54:29.848Z,22.20
2018-07-26T21:56:57.919Z,22.10
2018-07-26T21:59:26.074Z,22.00
2018-07-26T22:01:54.160Z,22.00
2018-07-26T22:04:22.223Z,22.00
2018-07-26T22:06:50.320Z,21.90
2018-07-26T22:09:18.375Z,21.90
2018-07-26T22:11:46.451Z,21.90
2018-07-26T22:14:14.578Z,21.80
2018-07-26T22:16:42.665Z,21.80
2018-07-26T22:19:10.734Z,21.70
2018-07-26T22:21:38.919Z,21.70
2018-07-26T22:26:36.039Z,21.70
2018-07-26T22:29:04.135Z,21.60
2018-07-26T22:31:32.240Z,21.60
2018-07-26T22:34:00.313Z,21.50
2018-07-26T22:36:28.383Z,21.50
2018-07-26T22:38:56.459Z,21.50
2018-07-26T22:41:24.523Z,21.50
2018-07-26T22:43:52.604Z,21.50
2018-07-26T22:46:20.694Z,21.50
2018-07-26T22:48:48.762Z,21.40
2018-07-26T22:51:16.890Z,21.30
2018-07-26T22:53:44.971Z,21.20
2018-07-26T22:56:13.050Z,21.20
2018-07-26T22:58:41.110Z,21.20
2018-07-26T23:01:09.199Z,21.20
2018-07-26T23:03:37.288Z,21.20
2018-07-26T23:06:05.358Z,21.20
2018-07-26T23:08:33.488Z,21.10
2018-07-26T23:11:01.553Z,21.10
2018-07-26T23:13:29.626Z,21.00
2018-07-26T23:15:57.732Z,21.00
2018-07-26T23:18:25.784Z,20.90
2018-07-26T23:20:53.855Z,21.00
2018-07-26T23:23:21.930Z,20.90
2018-07-26T23:25:49.991Z,20.90
2018-07-26T23:28:18.141Z,20.80
2018-07-26T23:30:46.252Z,20.80
2018-07-26T23:33:14.319Z,20.70
2018-07-26T23:35:42.443Z,20.70
2018-07-26T23:38:10.533Z,20.60
2018-07-26T23:40:38.628Z,20.70
2018-07-26T23:43:06.697Z,20.60
2018-07-26T23:45:34.771Z,20.60
2018-07-26T23:48:02.860Z,20.60
2018-07-26T23:50:30.937Z,20.50
2018-07-26T23:52:59.005Z,20.50
2018-07-26T23:55:27.131Z,20.50
2018-07-26T23:57:55.220Z,20.50
